Rocky Point, New York
Current Conditions -  °F | °C
As of 8:56 PM on Wednesday 22 Oct 2014 (Local Time) from KHWV Reporting Station
Light Rain Light Rain  
Wind Chill: 52°   Ceiling: 1500
Heat Index: 52°   Visibility: 7mi
Dew Point: 49°   Wind: 15mph
Humidity: 89%   Direction: 10°N
Pressure: 29.7"   Gusts: 28mph
Location:  40.95°N, 72.92°W
Report Text: KHWV 230056Z AUTO 01013G24KT 7SM -RA OVC015 11/09 A2970 RMK AO2 PK WND 02033/0012 SLP056 P0006 T01110094 TSNO $
Loading
Personal Weather Stations






























Interactive Weather Map
Tropical Storm Tracking
New forecast layout! Learn more

10-Day Weather Forecast

Advertisements
Track Severe Weather on mobile